createdAt,value
2023-05-08T00:01:43.498Z,3.75
2023-05-08T00:04:10.217Z,2.92
2023-05-08T00:06:37.169Z,3.15
2023-05-08T00:09:03.923Z,4.13
2023-05-08T00:11:30.464Z,4.32
2023-05-08T00:13:57.183Z,4.57
2023-05-08T00:16:24.060Z,4.15
2023-05-08T00:18:50.719Z,5.05
2023-05-08T00:21:17.620Z,4.10
2023-05-08T00:23:44.238Z,5.25
2023-05-08T00:26:10.857Z,4.00
2023-05-08T00:28:37.643Z,4.18
2023-05-08T00:31:04.211Z,4.38
2023-05-08T00:33:30.938Z,4.35
2023-05-08T00:36:01.527Z,6.47
2023-05-08T00:38:31.587Z,6.70
2023-05-08T00:40:58.809Z,5.32
2023-05-08T00:43:28.362Z,4.10
2023-05-08T00:46:02.246Z,5.22
2023-05-08T00:48:31.934Z,8.40
2023-05-08T00:50:59.064Z,6.25
2023-05-08T00:53:27.170Z,4.75
2023-05-08T00:55:54.532Z,4.28
2023-05-08T00:58:23.614Z,4.78
2023-05-08T01:00:54.274Z,5.75
2023-05-08T01:03:22.358Z,4.33
2023-05-08T01:05:49.327Z,3.63
2023-05-08T01:08:16.309Z,5.10
2023-05-08T01:11:03.460Z,5.93
2023-05-08T01:14:02.884Z,4.60
2023-05-08T01:16:42.299Z,5.32
2023-05-08T01:19:35.026Z,6.53
2023-05-08T01:22:39.915Z,4.22
2023-05-08T01:25:44.231Z,5.47
2023-05-08T01:28:32.340Z,6.03
2023-05-08T01:31:11.897Z,5.50
2023-05-08T01:33:50.570Z,6.25
2023-05-08T01:36:27.213Z,6.63
2023-05-08T01:39:12.244Z,4.75
2023-05-08T01:41:43.555Z,5.43
2023-05-08T01:44:17.433Z,8.02
2023-05-08T01:46:50.658Z,4.78
2023-05-08T01:49:38.747Z,4.82
2023-05-08T01:52:20.927Z,6.82
2023-05-08T01:55:01.856Z,4.75
2023-05-08T01:57:31.991Z,4.75
2023-05-08T02:00:01.518Z,5.50
2023-05-08T02:02:30.216Z,4.70
2023-05-08T02:04:58.298Z,4.35
2023-05-08T02:07:26.564Z,4.65
2023-05-08T02:09:54.696Z,6.13
2023-05-08T02:12:22.983Z,6.03
2023-05-08T02:14:53.021Z,4.38
2023-05-08T02:17:21.139Z,5.15
2023-05-08T02:19:49.561Z,4.90
2023-05-08T02:22:18.110Z,4.38
2023-05-08T02:24:46.212Z,5.18
2023-05-08T02:27:14.712Z,3.90
2023-05-08T02:29:42.640Z,4.03
2023-05-08T02:32:10.348Z,5.07
2023-05-08T02:34:40.998Z,4.30
2023-05-08T02:37:13.419Z,3.85
2023-05-08T02:39:42.590Z,3.85
2023-05-08T02:42:09.383Z,4.00
2023-05-08T02:44:36.235Z,4.45
2023-05-08T02:47:12.453Z,4.65
2023-05-08T02:49:52.114Z,6.13
2023-05-08T02:52:28.893Z,4.35
2023-05-08T02:55:04.733Z,3.92
2023-05-08T02:58:10.486Z,4.13
2023-05-08T03:00:49.143Z,5.43
2023-05-08T03:03:43.459Z,3.42
2023-05-08T03:06:15.489Z,6.70
2023-05-08T03:08:43.181Z,3.42
2023-05-08T03:11:14.871Z,4.18
2023-05-08T03:13:43.208Z,4.28
2023-05-08T03:16:15.106Z,3.92
2023-05-08T03:18:49.528Z,4.88
2023-05-08T03:21:19.586Z,3.97
2023-05-08T03:23:49.578Z,5.45
2023-05-08T03:26:19.790Z,4.68
2023-05-08T03:28:50.659Z,5.70
2023-05-08T03:31:21.570Z,4.65
2023-05-08T03:33:50.870Z,5.50
2023-05-08T03:36:18.249Z,5.03
2023-05-08T03:38:45.412Z,4.13
2023-05-08T03:41:13.217Z,4.45
2023-05-08T03:43:41.391Z,4.78
2023-05-08T03:46:10.357Z,7.22
2023-05-08T03:48:38.593Z,4.20
2023-05-08T03:51:06.139Z,6.05
2023-05-08T03:53:35.142Z,4.60
2023-05-08T03:56:03.251Z,4.72
2023-05-08T03:58:37.537Z,5.05
2023-05-08T04:01:12.052Z,4.20
2023-05-08T04:03:56.642Z,4.38
2023-05-08T04:06:42.110Z,4.95
2023-05-08T04:09:24.712Z,4.78
2023-05-08T04:12:14.942Z,5.22
2023-05-08T04:14:45.655Z,6.10
2023-05-08T04:17:16.049Z,5.72
2023-05-08T04:19:47.033Z,8.20
2023-05-08T04:22:15.300Z,6.70
2023-05-08T04:24:49.580Z,5.10
2023-05-08T04:27:17.057Z,5.00
2023-05-08T04:29:44.117Z,7.90
2023-05-08T04:32:11.897Z,6.25
2023-05-08T04:34:39.412Z,10.68
2023-05-08T04:37:07.931Z,6.30
2023-05-08T04:39:35.131Z,5.90
2023-05-08T04:42:03.764Z,7.70
2023-05-08T04:44:32.833Z,8.10
2023-05-08T04:46:59.493Z,7.55
2023-05-08T04:49:26.549Z,8.32
2023-05-08T04:51:53.106Z,9.93
2023-05-08T04:54:19.846Z,9.00
2023-05-08T04:56:46.490Z,8.73
2023-05-08T04:59:15.893Z,8.07
2023-05-08T05:01:42.968Z,7.90
2023-05-08T05:04:09.908Z,8.32
2023-05-08T05:06:36.578Z,9.60
2023-05-08T05:09:04.288Z,10.20
2023-05-08T05:11:31.415Z,9.50
2023-05-08T05:13:58.130Z,8.95
2023-05-08T05:16:25.165Z,8.43
2023-05-08T05:18:51.949Z,8.25
2023-05-08T05:21:19.315Z,7.60
2023-05-08T05:23:46.257Z,11.30
2023-05-08T05:26:12.814Z,10.82
2023-05-08T05:28:39.634Z,9.98
2023-05-08T05:31:07.100Z,10.32
2023-05-08T05:33:33.879Z,11.68
2023-05-08T05:36:00.785Z,10.73
2023-05-08T05:38:27.822Z,12.27
2023-05-08T05:40:54.989Z,9.23
2023-05-08T05:43:21.838Z,8.30
2023-05-08T05:45:48.490Z,9.70
2023-05-08T05:48:15.635Z,12.70
2023-05-08T05:50:42.458Z,10.52
2023-05-08T05:53:09.888Z,11.23
2023-05-08T05:55:36.816Z,10.98
2023-05-08T05:58:03.764Z,10.55
2023-05-08T06:00:31.474Z,11.60
2023-05-08T06:02:59.346Z,9.43
2023-05-08T06:05:26.258Z,9.57
2023-05-08T06:07:53.088Z,8.73
2023-05-08T06:10:20.099Z,8.50
2023-05-08T06:12:47.047Z,9.23
2023-05-08T06:15:15.144Z,9.30
2023-05-08T06:17:43.737Z,11.43
2023-05-08T06:20:10.776Z,10.40
2023-05-08T06:22:40.118Z,13.82
2023-05-08T06:25:07.651Z,9.18
2023-05-08T06:27:34.797Z,10.02
2023-05-08T06:30:01.860Z,11.65
2023-05-08T06:32:28.785Z,9.30
2023-05-08T06:34:55.312Z,11.30
2023-05-08T06:37:21.861Z,10.77
2023-05-08T06:39:50.550Z,18.65
2023-05-08T06:42:21.403Z,9.05
2023-05-08T06:44:48.220Z,10.20
2023-05-08T06:47:14.745Z,13.30
2023-05-08T06:49:41.621Z,11.40
2023-05-08T06:52:08.140Z,9.35
2023-05-08T06:54:34.668Z,9.57
2023-05-08T06:57:01.282Z,13.25
2023-05-08T06:59:27.856Z,10.60
2023-05-08T07:01:54.584Z,9.60
2023-05-08T07:04:21.618Z,12.75
2023-05-08T07:06:48.226Z,10.23
2023-05-08T07:09:16.131Z,11.02
2023-05-08T07:11:42.862Z,13.15
2023-05-08T07:14:09.400Z,11.30
2023-05-08T07:16:36.427Z,10.57
2023-05-08T07:19:03.510Z,11.77
2023-05-08T07:21:30.700Z,8.10
2023-05-08T07:23:57.290Z,11.93
2023-05-08T07:26:23.877Z,10.70
2023-05-08T07:28:50.929Z,12.80
2023-05-08T07:31:17.548Z,9.25
2023-05-08T07:33:44.247Z,10.65
2023-05-08T07:36:11.279Z,10.70
2023-05-08T07:38:38.019Z,9.40
2023-05-08T07:41:05.436Z,9.27
2023-05-08T07:43:32.328Z,10.88
2023-05-08T07:45:59.068Z,10.65
2023-05-08T07:48:25.963Z,9.55
2023-05-08T07:50:52.521Z,10.10
2023-05-08T07:53:19.341Z,10.02
2023-05-08T07:55:45.933Z,11.27
2023-05-08T07:58:12.488Z,13.32
2023-05-08T08:00:39.649Z,10.93
2023-05-08T08:03:07.217Z,9.38
2023-05-08T08:05:33.909Z,10.50
2023-05-08T08:08:00.427Z,10.05
2023-05-08T08:10:27.209Z,13.38
2023-05-08T08:12:53.960Z,11.60
2023-05-08T08:15:20.727Z,11.20
2023-05-08T08:17:47.315Z,9.95
2023-05-08T08:20:14.352Z,11.30
2023-05-08T08:22:41.113Z,11.57
2023-05-08T08:25:08.279Z,12.55
2023-05-08T08:27:34.947Z,12.05
2023-05-08T08:30:16.308Z,11.75
2023-05-08T08:32:44.635Z,10.00
2023-05-08T08:35:12.076Z,10.95
2023-05-08T08:37:38.929Z,9.95
2023-05-08T08:40:06.407Z,11.82
2023-05-08T08:42:32.948Z,12.02
2023-05-08T08:45:01.148Z,11.75
2023-05-08T08:47:29.911Z,11.93
2023-05-08T08:50:02.069Z,10.68
2023-05-08T08:52:37.665Z,10.23
2023-05-08T08:55:08.325Z,12.35
2023-05-08T08:57:37.157Z,10.40
2023-05-08T09:00:09.045Z,14.70
2023-05-08T09:02:36.171Z,11.63
2023-05-08T09:05:03.433Z,15.30
2023-05-08T09:07:30.444Z,11.65
2023-05-08T09:09:57.430Z,11.57
2023-05-08T09:12:24.176Z,15.75
2023-05-08T09:14:51.355Z,13.27
2023-05-08T09:17:17.928Z,11.07
2023-05-08T09:19:44.971Z,15.57
2023-05-08T09:22:11.829Z,10.98
2023-05-08T09:24:56.195Z,10.65
2023-05-08T09:27:28.186Z,11.68
2023-05-08T09:30:06.685Z,13.77
2023-05-08T09:32:35.100Z,14.90
2023-05-08T09:35:02.110Z,12.85
2023-05-08T09:37:29.353Z,11.52
2023-05-08T09:40:13.498Z,13.57
2023-05-08T09:42:40.366Z,12.60
2023-05-08T09:45:07.587Z,10.43
2023-05-08T09:47:37.379Z,11.77
2023-05-08T09:50:11.321Z,13.68
2023-05-08T09:52:45.815Z,10.90
2023-05-08T09:55:12.479Z,11.07
2023-05-08T09:57:53.163Z,10.82
2023-05-08T10:00:20.614Z,12.33
2023-05-08T10:03:02.348Z,12.82
2023-05-08T10:07:59.614Z,15.02
2023-05-08T10:10:28.048Z,14.63
2023-05-08T10:12:56.329Z,10.63
2023-05-08T10:15:31.336Z,14.30
2023-05-08T10:18:06.867Z,10.13
2023-05-08T10:20:35.703Z,15.63
2023-05-08T10:23:04.097Z,12.15
2023-05-08T10:25:35.577Z,12.55
2023-05-08T10:28:17.509Z,15.07
2023-05-08T10:30:48.510Z,13.27
2023-05-08T10:33:20.228Z,17.65
2023-05-08T10:35:48.066Z,12.43
2023-05-08T10:38:15.313Z,13.68
2023-05-08T10:40:42.274Z,15.15
2023-05-08T10:43:09.692Z,14.55
2023-05-08T10:45:37.153Z,14.93
2023-05-08T10:48:15.096Z,14.13
2023-05-08T10:51:01.134Z,17.77
2023-05-08T10:53:41.078Z,13.63
2023-05-08T10:56:08.015Z,16.20
2023-05-08T10:58:37.309Z,11.63
2023-05-08T11:01:07.907Z,12.85
2023-05-08T11:03:43.797Z,12.10
2023-05-08T11:06:11.589Z,12.90
2023-05-08T11:08:51.774Z,13.55
2023-05-08T11:11:33.852Z,12.43
2023-05-08T11:14:14.254Z,17.52
2023-05-08T11:16:56.608Z,15.73
2023-05-08T11:19:25.033Z,12.60
2023-05-08T11:22:20.766Z,11.48
2023-05-08T11:24:49.142Z,12.40
2023-05-08T11:27:16.305Z,17.10
2023-05-08T11:29:44.874Z,13.13
2023-05-08T11:32:11.860Z,13.48
2023-05-08T11:34:44.408Z,14.55
2023-05-08T11:37:17.313Z,14.45
2023-05-08T11:39:44.338Z,16.00
2023-05-08T11:42:29.167Z,11.25
2023-05-08T11:45:14.335Z,14.75
2023-05-08T11:47:45.274Z,14.15
2023-05-08T11:50:13.757Z,14.55
2023-05-08T11:52:42.085Z,11.35
2023-05-08T11:55:10.619Z,14.32
2023-05-08T11:57:37.857Z,13.05
2023-05-08T12:00:09.587Z,11.05
2023-05-08T12:02:42.738Z,12.02
2023-05-08T12:05:11.025Z,10.88
2023-05-08T12:07:47.909Z,12.25
2023-05-08T12:10:16.630Z,14.82
2023-05-08T12:12:44.526Z,13.07
2023-05-08T12:15:13.602Z,12.65
2023-05-08T12:17:41.103Z,14.23
2023-05-08T12:20:12.245Z,13.60
2023-05-08T12:22:40.739Z,17.50
2023-05-08T12:25:13.079Z,15.57
2023-05-08T12:27:39.918Z,14.70
2023-05-08T12:30:12.698Z,13.30
2023-05-08T12:32:43.759Z,13.65
2023-05-08T12:35:12.246Z,12.82
2023-05-08T12:37:39.718Z,17.00
2023-05-08T12:40:07.565Z,15.00
2023-05-08T12:42:48.317Z,15.02
2023-05-08T12:45:23.207Z,16.17
2023-05-08T12:47:51.602Z,15.48
2023-05-08T12:50:21.237Z,15.77
2023-05-08T12:52:49.967Z,16.13
2023-05-08T12:55:29.482Z,13.65
2023-05-08T12:58:01.461Z,15.18
2023-05-08T13:00:39.396Z,14.05
2023-05-08T13:03:07.720Z,15.75
2023-05-08T13:05:36.855Z,15.23
2023-05-08T13:08:11.460Z,16.00
2023-05-08T13:10:55.246Z,15.73
2023-05-08T13:13:26.676Z,16.38
2023-05-08T13:15:54.968Z,14.27
2023-05-08T13:18:25.066Z,14.13
2023-05-08T13:20:51.794Z,13.88
2023-05-08T13:23:18.509Z,16.10
2023-05-08T13:25:45.188Z,16.55
2023-05-08T13:28:12.140Z,14.40
2023-05-08T13:30:39.182Z,19.25
2023-05-08T13:33:06.386Z,14.05
2023-05-08T13:35:33.957Z,15.07
2023-05-08T13:38:00.591Z,17.25
2023-05-08T13:40:27.802Z,15.77
2023-05-08T13:42:54.381Z,13.57
2023-05-08T13:45:21.095Z,14.80
2023-05-08T13:47:49.389Z,13.40
2023-05-08T13:50:18.338Z,11.00
2023-05-08T13:52:44.917Z,16.92
2023-05-08T13:55:14.093Z,11.52
2023-05-08T13:57:41.440Z,9.40
2023-05-08T14:00:09.328Z,11.55
2023-05-08T14:02:37.517Z,11.95
2023-05-08T14:05:05.364Z,9.93
2023-05-08T14:07:32.227Z,10.75
2023-05-08T14:09:58.847Z,12.40
2023-05-08T14:12:25.427Z,9.13
2023-05-08T14:14:51.968Z,10.43
2023-05-08T14:17:18.692Z,9.38
2023-05-08T14:19:46.224Z,12.32
2023-05-08T14:22:12.873Z,10.38
2023-05-08T14:24:39.970Z,10.70
2023-05-08T14:27:06.669Z,10.52
2023-05-08T14:29:34.311Z,15.88
2023-05-08T14:32:01.228Z,11.75
2023-05-08T14:34:27.974Z,13.35
2023-05-08T14:36:54.865Z,11.55
2023-05-08T14:39:21.483Z,11.85
2023-05-08T14:42:02.341Z,12.20
2023-05-08T14:44:34.879Z,10.98
2023-05-08T14:47:01.521Z,9.93
2023-05-08T14:49:37.573Z,11.20
2023-05-08T14:52:05.861Z,11.52
2023-05-08T14:54:32.569Z,13.80
2023-05-08T14:56:59.863Z,15.80
2023-05-08T14:59:26.500Z,11.68
2023-05-08T15:01:53.131Z,10.70
2023-05-08T15:04:19.821Z,11.68
2023-05-08T15:06:46.720Z,17.83
2023-05-08T15:09:13.459Z,10.30
2023-05-08T15:11:40.087Z,12.77
2023-05-08T15:14:06.659Z,15.27
2023-05-08T15:16:33.295Z,13.63
2023-05-08T15:19:00.068Z,16.13
2023-05-08T15:21:27.539Z,16.02
2023-05-08T15:23:55.545Z,12.55
2023-05-08T15:26:22.923Z,14.23
2023-05-08T15:28:49.804Z,14.27
2023-05-08T15:31:17.194Z,14.50
2023-05-08T15:33:45.220Z,16.95
2023-05-08T15:36:13.566Z,17.08
2023-05-08T15:38:41.056Z,14.85
2023-05-08T15:41:07.879Z,16.58
2023-05-08T15:43:34.436Z,14.65
2023-05-08T15:46:01.176Z,15.68
2023-05-08T15:48:27.891Z,17.00
2023-05-08T15:50:54.563Z,16.50
2023-05-08T15:53:21.156Z,19.20
2023-05-08T15:55:47.738Z,15.93
2023-05-08T15:58:14.524Z,18.73
2023-05-08T16:00:45.364Z,18.88
2023-05-08T16:03:12.396Z,19.88
2023-05-08T16:05:39.636Z,15.45
2023-05-08T16:08:07.560Z,15.50
2023-05-08T16:10:34.481Z,16.25
2023-05-08T16:13:01.235Z,16.52
2023-05-08T16:15:27.802Z,16.95
2023-05-08T16:17:54.587Z,15.60
2023-05-08T16:20:21.360Z,15.52
2023-05-08T16:22:47.923Z,14.75
2023-05-08T16:25:14.835Z,15.07
2023-05-08T16:27:41.566Z,14.20
2023-05-08T16:30:08.763Z,18.50
2023-05-08T16:32:35.348Z,15.63
2023-05-08T16:35:01.985Z,16.02
2023-05-08T16:37:28.578Z,16.80
2023-05-08T16:39:55.234Z,15.32
2023-05-08T16:42:21.968Z,15.73
2023-05-08T16:44:48.573Z,16.08
2023-05-08T16:47:15.218Z,12.13
2023-05-08T16:49:41.956Z,13.45
2023-05-08T16:52:08.558Z,15.70
2023-05-08T16:54:35.221Z,13.05
2023-05-08T16:57:01.898Z,11.52
2023-05-08T16:59:28.822Z,14.98
2023-05-08T17:01:55.386Z,12.68
2023-05-08T17:04:22.049Z,14.48
2023-05-08T17:06:48.740Z,10.63
2023-05-08T17:09:16.493Z,14.32
2023-05-08T17:11:43.221Z,10.48
2023-05-08T17:14:09.850Z,13.00
2023-05-08T17:16:36.605Z,10.35
2023-05-08T17:19:03.288Z,14.23
2023-05-08T17:21:31.962Z,14.63
2023-05-08T17:24:01.874Z,14.82
2023-05-08T17:26:32.424Z,14.05
2023-05-08T17:28:59.303Z,15.23
2023-05-08T17:31:25.936Z,13.48
2023-05-08T17:33:52.592Z,13.48
2023-05-08T17:36:19.173Z,12.20
2023-05-08T17:38:47.171Z,12.90
2023-05-08T17:41:14.052Z,14.85
2023-05-08T17:43:41.015Z,13.57
2023-05-08T17:46:07.852Z,13.00
2023-05-08T17:48:34.896Z,12.52
2023-05-08T17:51:02.729Z,10.98
2023-05-08T17:53:30.830Z,17.30
2023-05-08T17:55:58.058Z,12.68
2023-05-08T17:58:25.088Z,11.63
2023-05-08T18:00:52.048Z,12.93
2023-05-08T18:03:18.750Z,12.10
2023-05-08T18:05:45.695Z,15.98
2023-05-08T18:08:12.250Z,13.80
2023-05-08T18:10:39.459Z,11.18
2023-05-08T18:13:06.200Z,13.02
2023-05-08T18:15:36.017Z,9.93
2023-05-08T18:18:02.988Z,11.10
2023-05-08T18:20:29.662Z,12.35
2023-05-08T18:22:56.210Z,11.45
2023-05-08T18:25:22.759Z,11.23
2023-05-08T18:27:50.562Z,10.65
2023-05-08T18:30:17.244Z,10.68
2023-05-08T18:32:43.920Z,9.98
2023-05-08T18:35:11.044Z,10.15
2023-05-08T18:37:37.837Z,11.27
2023-05-08T18:40:05.128Z,13.82
2023-05-08T18:42:31.650Z,14.05
2023-05-08T18:45:00.469Z,9.38
2023-05-08T18:47:27.083Z,10.98
2023-05-08T18:49:53.900Z,14.68
2023-05-08T18:52:20.535Z,11.38
2023-05-08T18:54:47.180Z,11.55
2023-05-08T18:57:13.783Z,11.75
2023-05-08T18:59:40.386Z,12.52
2023-05-08T19:02:06.983Z,13.40
2023-05-08T19:04:33.562Z,12.35
2023-05-08T19:07:00.838Z,12.40
2023-05-08T19:09:27.395Z,12.27
2023-05-08T19:11:55.007Z,12.50
2023-05-08T19:14:21.675Z,12.55
2023-05-08T19:16:48.218Z,14.02
2023-05-08T19:19:14.848Z,11.07
2023-05-08T19:21:41.350Z,13.85
2023-05-08T19:24:11.780Z,10.57
2023-05-08T19:26:38.470Z,9.83
2023-05-08T19:29:05.033Z,11.85
2023-05-08T19:31:31.701Z,11.05
2023-05-08T19:33:58.402Z,10.02
2023-05-08T19:36:25.023Z,10.02
2023-05-08T19:38:51.769Z,10.75
2023-05-08T19:41:18.458Z,11.98
2023-05-08T19:43:45.045Z,7.93
2023-05-08T19:46:11.954Z,9.82
2023-05-08T19:48:38.496Z,9.50
2023-05-08T19:51:09.616Z,10.38
2023-05-08T19:53:36.500Z,10.25
2023-05-08T19:56:03.278Z,9.57
2023-05-08T19:58:29.845Z,8.88
2023-05-08T20:00:56.556Z,10.52
2023-05-08T20:03:23.491Z,10.45
2023-05-08T20:05:53.225Z,10.75
2023-05-08T20:08:20.065Z,11.93
2023-05-08T20:10:49.509Z,13.30
2023-05-08T20:13:17.433Z,10.82
2023-05-08T20:15:44.415Z,15.50
2023-05-08T20:18:11.006Z,12.73
2023-05-08T20:20:37.735Z,12.35
2023-05-08T20:23:04.549Z,12.00
2023-05-08T20:25:31.207Z,11.80
2023-05-08T20:27:57.874Z,15.20
2023-05-08T20:30:24.550Z,12.00
2023-05-08T20:32:51.239Z,12.27
2023-05-08T20:35:17.984Z,13.07
2023-05-08T20:37:46.249Z,12.40
2023-05-08T20:40:14.863Z,12.27
2023-05-08T20:42:41.678Z,17.60
2023-05-08T20:45:10.640Z,12.40
2023-05-08T20:47:37.423Z,11.73
2023-05-08T20:50:04.536Z,12.02
2023-05-08T20:52:32.340Z,13.27
2023-05-08T20:54:59.294Z,10.88
2023-05-08T20:57:26.182Z,13.00
2023-05-08T20:59:52.842Z,11.43
2023-05-08T21:02:19.572Z,13.25
2023-05-08T21:04:46.218Z,12.80
2023-05-08T21:07:12.976Z,11.00
2023-05-08T21:09:39.795Z,14.80
2023-05-08T21:12:06.783Z,13.20
2023-05-08T21:14:35.481Z,14.45
2023-05-08T21:17:02.120Z,14.95
2023-05-08T21:19:30.920Z,13.95
2023-05-08T21:21:57.796Z,11.98
2023-05-08T21:24:25.647Z,13.98
2023-05-08T21:26:53.408Z,12.23
2023-05-08T21:29:20.157Z,14.30
2023-05-08T21:31:46.945Z,15.70
2023-05-08T21:34:14.833Z,12.65
2023-05-08T21:36:41.830Z,14.15
2023-05-08T21:39:08.874Z,14.95
2023-05-08T21:41:35.646Z,15.10
2023-05-08T21:44:02.329Z,13.30
2023-05-08T21:46:29.163Z,12.18
2023-05-08T21:48:55.763Z,14.20
2023-05-08T21:51:22.361Z,13.85
2023-05-08T21:53:49.213Z,12.45
2023-05-08T21:56:16.641Z,13.63
2023-05-08T21:58:43.201Z,14.50
2023-05-08T22:01:10.154Z,13.70
2023-05-08T22:03:37.038Z,15.30
2023-05-08T22:06:03.934Z,13.75
2023-05-08T22:08:30.640Z,13.05
2023-05-08T22:10:57.403Z,14.60
2023-05-08T22:13:23.992Z,16.92
2023-05-08T22:15:50.854Z,19.85
2023-05-08T22:18:18.033Z,15.63
2023-05-08T22:20:44.899Z,13.43
2023-05-08T22:23:11.446Z,13.13
2023-05-08T22:25:38.177Z,18.35
2023-05-08T22:28:04.869Z,15.45
2023-05-08T22:30:31.544Z,15.95
2023-05-08T22:32:58.287Z,19.65
2023-05-08T22:35:27.317Z,13.98
2023-05-08T22:37:54.656Z,15.15
2023-05-08T22:40:22.144Z,16.48
2023-05-08T22:42:51.701Z,20.70
2023-05-08T22:45:18.566Z,16.52
2023-05-08T22:47:45.740Z,16.67
2023-05-08T22:50:12.456Z,15.57
2023-05-08T22:52:39.750Z,16.40
2023-05-08T22:55:06.984Z,15.52
2023-05-08T22:57:33.797Z,17.17
2023-05-08T23:00:00.555Z,21.10
2023-05-08T23:02:33.896Z,16.08
2023-05-08T23:05:01.892Z,18.05
2023-05-08T23:07:29.103Z,15.60
2023-05-08T23:09:55.811Z,18.15
2023-05-08T23:12:22.384Z,17.65
2023-05-08T23:14:48.901Z,18.02
2023-05-08T23:17:15.543Z,18.85
2023-05-08T23:19:42.424Z,18.25
2023-05-08T23:22:09.445Z,16.40
2023-05-08T23:24:36.473Z,17.55
2023-05-08T23:27:03.398Z,19.58
2023-05-08T23:29:30.225Z,17.50
2023-05-08T23:31:56.938Z,19.75
2023-05-08T23:34:23.553Z,18.40
2023-05-08T23:36:50.164Z,17.35
2023-05-08T23:39:16.910Z,19.88
2023-05-08T23:41:43.581Z,26.05
2023-05-08T23:44:10.462Z,19.63
2023-05-08T23:46:37.118Z,20.13
2023-05-08T23:49:05.433Z,17.48
2023-05-08T23:51:32.540Z,23.45
2023-05-08T23:53:59.166Z,19.15
2023-05-08T23:56:26.826Z,18.10
2023-05-08T23:58:53.431Z,20.00
